createdAt,value
2023-12-03T00:00:16.669Z,6.07
2023-12-03T00:01:50.888Z,5.85
2023-12-03T00:03:24.668Z,6.65
2023-12-03T00:05:00.053Z,6.47
2023-12-03T00:06:33.153Z,5.80
2023-12-03T00:08:07.838Z,6.80
2023-12-03T00:09:41.027Z,5.70
2023-12-03T00:11:15.572Z,6.60
2023-12-03T00:12:48.679Z,7.18
2023-12-03T00:14:24.627Z,6.75
2023-12-03T00:15:57.638Z,6.57
2023-12-03T00:17:32.154Z,6.05
2023-12-03T00:19:05.417Z,6.55
2023-12-03T00:20:39.500Z,6.38
2023-12-03T00:22:12.563Z,5.45
2023-12-03T00:23:47.199Z,6.88
2023-12-03T00:25:20.281Z,6.43
2023-12-03T00:26:54.211Z,6.70
2023-12-03T00:28:27.203Z,6.88
2023-12-03T00:30:03.224Z,7.10
2023-12-03T00:31:36.174Z,7.57
2023-12-03T00:33:10.209Z,7.57
2023-12-03T00:34:43.304Z,6.82
2023-12-03T00:36:17.831Z,6.10
2023-12-03T00:37:50.885Z,6.53
2023-12-03T00:39:25.392Z,6.47
2023-12-03T00:40:59.040Z,6.15
2023-12-03T00:42:33.632Z,6.35
2023-12-03T00:44:07.604Z,6.78
2023-12-03T00:45:42.206Z,6.30
2023-12-03T00:47:17.164Z,6.05
2023-12-03T00:48:50.985Z,6.15
2023-12-03T00:50:25.132Z,6.03
2023-12-03T00:51:59.077Z,6.55
2023-12-03T00:53:33.569Z,6.07
2023-12-03T00:55:06.956Z,5.88
2023-12-03T00:56:40.925Z,6.35
2023-12-03T00:58:13.845Z,5.57
2023-12-03T00:59:48.351Z,5.82
2023-12-03T01:01:23.063Z,5.93
2023-12-03T01:02:57.873Z,7.47
2023-12-03T01:04:30.950Z,6.28
2023-12-03T01:06:05.604Z,5.90
2023-12-03T01:07:38.597Z,6.38
2023-12-03T01:09:12.779Z,5.65
2023-12-03T01:10:46.038Z,6.10
2023-12-03T01:12:20.559Z,6.55
2023-12-03T01:13:53.597Z,5.80
2023-12-03T01:15:28.021Z,6.32
2023-12-03T01:17:03.333Z,5.30
2023-12-03T01:18:37.778Z,5.53
2023-12-03T01:20:12.002Z,6.43
2023-12-03T01:21:46.018Z,6.50
2023-12-03T01:23:19.088Z,6.00
2023-12-03T01:24:53.519Z,6.80
2023-12-03T01:26:26.454Z,7.47
2023-12-03T01:28:00.611Z,6.20
2023-12-03T01:29:33.832Z,6.10
2023-12-03T01:31:09.045Z,5.15
2023-12-03T01:32:44.539Z,6.20
2023-12-03T01:34:17.634Z,7.10
2023-12-03T01:35:51.668Z,6.38
2023-12-03T01:37:26.172Z,5.82
2023-12-03T01:38:59.117Z,6.15
2023-12-03T01:40:33.051Z,6.75
2023-12-03T01:42:06.563Z,6.43
2023-12-03T01:43:49.290Z,6.40
2023-12-03T01:45:22.292Z,5.85
2023-12-03T01:46:59.424Z,6.65
2023-12-03T01:48:34.341Z,6.10
2023-12-03T01:50:12.919Z,6.63
2023-12-03T01:51:47.128Z,5.90
2023-12-03T01:53:21.385Z,6.57
2023-12-03T01:54:56.042Z,6.03
2023-12-03T01:56:30.541Z,6.95
2023-12-03T01:58:03.761Z,6.40
2023-12-03T01:59:38.121Z,6.40
2023-12-03T02:01:11.330Z,6.22
2023-12-03T02:02:45.860Z,6.40
2023-12-03T02:04:21.208Z,6.60
2023-12-03T02:06:03.181Z,6.20
2023-12-03T02:07:37.342Z,5.82
2023-12-03T02:09:10.813Z,6.13
2023-12-03T02:10:45.132Z,5.90
2023-12-03T02:12:19.681Z,5.55
2023-12-03T02:13:53.696Z,6.00
2023-12-03T02:15:27.218Z,6.15
2023-12-03T02:17:01.279Z,5.93
2023-12-03T02:18:34.742Z,6.47
2023-12-03T02:20:11.565Z,6.85
2023-12-03T02:21:45.017Z,6.10
2023-12-03T02:23:20.777Z,6.88
2023-12-03T02:24:54.707Z,7.13
2023-12-03T02:26:27.657Z,7.18
2023-12-03T02:28:02.224Z,8.30
2023-12-03T02:29:36.281Z,6.45
2023-12-03T02:31:09.340Z,7.40
2023-12-03T02:32:43.360Z,7.10
2023-12-03T02:34:18.098Z,6.55
2023-12-03T02:35:51.095Z,7.80
2023-12-03T02:37:25.041Z,7.30
2023-12-03T02:38:59.853Z,7.28
2023-12-03T02:40:34.823Z,7.13
2023-12-03T02:42:07.764Z,7.40
2023-12-03T02:43:41.839Z,7.50
2023-12-03T02:45:15.363Z,8.88
2023-12-03T02:46:49.324Z,7.40
2023-12-03T02:48:22.457Z,7.22
2023-12-03T02:49:56.976Z,8.30
2023-12-03T02:51:31.462Z,9.35
2023-12-03T02:53:04.551Z,8.48
2023-12-03T02:54:41.485Z,7.45
2023-12-03T02:56:14.654Z,8.10
2023-12-03T02:57:49.217Z,8.02
2023-12-03T02:59:22.295Z,8.27
2023-12-03T03:00:56.267Z,7.07
2023-12-03T03:02:29.249Z,7.80
2023-12-03T03:04:03.780Z,8.38
2023-12-03T03:05:36.789Z,8.18
2023-12-03T03:07:10.760Z,7.90
2023-12-03T03:08:44.740Z,8.02
2023-12-03T03:10:19.498Z,8.63
2023-12-03T03:11:54.400Z,8.43
2023-12-03T03:13:27.358Z,7.80
2023-12-03T03:15:01.360Z,8.70
2023-12-03T03:16:36.094Z,9.15
2023-12-03T03:18:10.163Z,8.43
2023-12-03T03:19:44.063Z,9.13
2023-12-03T03:21:18.126Z,8.60
2023-12-03T03:22:51.903Z,8.43
2023-12-03T03:24:25.916Z,8.30
2023-12-03T03:26:00.329Z,8.23
2023-12-03T03:27:34.296Z,7.82
2023-12-03T03:29:08.100Z,8.57
2023-12-03T03:30:42.080Z,8.57
2023-12-03T03:32:15.311Z,8.50
2023-12-03T03:33:49.523Z,9.30
2023-12-03T03:35:23.261Z,8.75
2023-12-03T03:36:57.611Z,8.95
2023-12-03T03:38:31.510Z,8.05
2023-12-03T03:40:05.729Z,8.52
2023-12-03T03:41:41.529Z,9.45
2023-12-03T03:43:15.023Z,9.98
2023-12-03T03:44:49.014Z,8.48
2023-12-03T03:46:22.001Z,8.27
2023-12-03T03:47:56.534Z,8.05
2023-12-03T03:49:29.584Z,8.80
2023-12-03T03:51:03.608Z,7.88
2023-12-03T03:52:36.963Z,9.70
2023-12-03T03:54:10.997Z,9.93
2023-12-03T03:55:43.754Z,10.38
2023-12-03T03:57:20.121Z,9.93
2023-12-03T03:58:52.986Z,9.27
2023-12-03T04:00:26.765Z,10.10
2023-12-03T04:01:59.654Z,9.85
2023-12-03T04:03:34.838Z,9.15
2023-12-03T04:05:08.822Z,9.02
2023-12-03T04:06:45.674Z,10.18
2023-12-03T04:08:18.557Z,8.48
2023-12-03T04:09:52.685Z,9.68
2023-12-03T04:11:26.369Z,8.45
2023-12-03T04:13:00.489Z,8.88
2023-12-03T04:14:34.193Z,9.05
2023-12-03T04:16:08.660Z,9.73
2023-12-03T04:17:42.791Z,10.13
2023-12-03T04:19:15.670Z,10.52
2023-12-03T04:20:49.449Z,10.07
2023-12-03T04:22:25.163Z,9.10
2023-12-03T04:23:58.304Z,7.85
2023-12-03T04:25:32.388Z,9.65
2023-12-03T04:27:05.568Z,9.90
2023-12-03T04:28:43.022Z,9.63
2023-12-03T04:30:15.969Z,9.60
2023-12-03T04:31:50.251Z,10.65
2023-12-03T04:33:23.035Z,9.88
2023-12-03T04:34:57.158Z,10.75
2023-12-03T04:36:30.931Z,9.80
2023-12-03T04:38:04.323Z,9.05
2023-12-03T04:39:38.295Z,9.77
2023-12-03T04:41:11.503Z,8.18
2023-12-03T04:42:45.952Z,9.30
2023-12-03T04:44:20.135Z,8.85
2023-12-03T04:45:53.950Z,9.00
2023-12-03T04:47:26.725Z,9.18
2023-12-03T04:49:00.935Z,10.00
2023-12-03T04:50:33.712Z,9.80
2023-12-03T04:52:07.688Z,9.10
2023-12-03T04:53:40.443Z,9.43
2023-12-03T04:55:14.724Z,8.93
2023-12-03T04:56:47.476Z,8.85
2023-12-03T04:58:21.525Z,9.48
2023-12-03T04:59:56.739Z,8.63
2023-12-03T05:01:29.904Z,9.50
2023-12-03T05:03:03.657Z,9.98
2023-12-03T05:04:36.569Z,9.68
2023-12-03T05:06:10.771Z,11.00
2023-12-03T05:07:43.795Z,9.40
2023-12-03T05:09:17.739Z,10.90
2023-12-03T05:10:51.529Z,8.73
2023-12-03T05:12:24.330Z,10.15
2023-12-03T05:13:58.444Z,9.35
2023-12-03T05:15:32.528Z,8.55
2023-12-03T05:17:06.681Z,9.20
2023-12-03T05:18:42.519Z,10.30
2023-12-03T05:20:15.868Z,9.65
2023-12-03T05:21:49.682Z,9.90
2023-12-03T05:23:22.406Z,8.88
2023-12-03T05:24:56.143Z,9.57
2023-12-03T05:26:30.172Z,9.40
2023-12-03T05:28:02.925Z,10.40
2023-12-03T05:29:36.702Z,9.85
2023-12-03T05:31:10.942Z,9.70
2023-12-03T05:32:45.039Z,10.85
2023-12-03T05:34:17.877Z,10.13
2023-12-03T05:35:52.278Z,10.65
2023-12-03T05:37:29.940Z,10.65
2023-12-03T05:39:05.972Z,10.60
2023-12-03T05:40:39.089Z,10.30
2023-12-03T05:42:14.509Z,10.70
2023-12-03T05:43:48.939Z,11.25
2023-12-03T05:45:22.737Z,10.63
2023-12-03T05:46:58.284Z,11.38
2023-12-03T05:48:32.436Z,10.32
2023-12-03T05:50:08.462Z,10.80
2023-12-03T05:51:45.351Z,10.57
2023-12-03T05:53:20.054Z,9.52
2023-12-03T05:54:53.829Z,10.77
2023-12-03T05:56:28.472Z,10.93
2023-12-03T05:58:02.200Z,11.38
2023-12-03T05:59:36.781Z,11.90
2023-12-03T06:01:11.248Z,12.48
2023-12-03T06:02:46.409Z,11.15
2023-12-03T06:04:21.208Z,11.10
2023-12-03T06:05:55.397Z,11.50
2023-12-03T06:07:28.826Z,11.10
2023-12-03T06:09:03.397Z,10.00
2023-12-03T06:10:36.941Z,11.45
2023-12-03T06:12:11.440Z,12.20
2023-12-03T06:13:44.945Z,12.57
2023-12-03T06:15:19.442Z,11.35
2023-12-03T06:16:53.363Z,11.35
2023-12-03T06:18:30.993Z,10.82
2023-12-03T06:20:05.937Z,12.13
2023-12-03T06:21:39.797Z,13.18
2023-12-03T06:23:17.011Z,12.65
2023-12-03T06:24:51.888Z,12.48
2023-12-03T06:26:26.749Z,11.30
2023-12-03T06:28:00.128Z,12.88
2023-12-03T06:29:34.490Z,12.15
2023-12-03T06:31:08.269Z,11.30
2023-12-03T06:32:42.629Z,12.02
2023-12-03T06:34:18.592Z,11.70
2023-12-03T06:35:52.441Z,12.35
2023-12-03T06:37:27.134Z,11.93
2023-12-03T06:39:00.280Z,13.27
2023-12-03T06:40:34.701Z,11.70
2023-12-03T06:42:08.160Z,11.70
2023-12-03T06:43:42.852Z,12.68
2023-12-03T06:45:17.756Z,11.88
2023-12-03T06:46:51.088Z,12.95
2023-12-03T06:48:25.700Z,12.15
2023-12-03T06:50:00.421Z,11.98
2023-12-03T06:51:35.151Z,11.30
2023-12-03T06:53:08.636Z,11.18
2023-12-03T06:54:44.220Z,11.43
2023-12-03T06:56:17.437Z,12.95
2023-12-03T06:57:52.523Z,11.68
2023-12-03T06:59:26.834Z,10.63
2023-12-03T07:01:00.385Z,10.52
2023-12-03T07:02:34.995Z,11.32
2023-12-03T07:04:09.498Z,12.43
2023-12-03T07:05:44.492Z,10.73
2023-12-03T07:07:18.766Z,12.13
2023-12-03T07:08:52.560Z,12.50
2023-12-03T07:10:26.770Z,11.77
2023-12-03T07:12:00.527Z,12.20
2023-12-03T07:13:34.650Z,11.40
2023-12-03T07:15:08.913Z,12.93
2023-12-03T07:16:43.663Z,11.57
2023-12-03T07:18:17.262Z,11.75
2023-12-03T07:19:52.032Z,11.25
2023-12-03T07:21:27.925Z,11.10
2023-12-03T07:23:01.299Z,11.43
2023-12-03T07:24:36.097Z,11.25
2023-12-03T07:26:12.552Z,10.77
2023-12-03T07:27:48.250Z,10.32
2023-12-03T07:29:21.966Z,11.88
2023-12-03T07:30:56.838Z,10.57
2023-12-03T07:32:30.227Z,11.85
2023-12-03T07:34:05.343Z,11.13
2023-12-03T07:35:39.245Z,11.77
2023-12-03T07:37:15.241Z,12.18
2023-12-03T07:38:48.774Z,10.75
2023-12-03T07:40:23.707Z,11.27
2023-12-03T07:41:57.468Z,11.93
2023-12-03T07:43:32.202Z,12.18
2023-12-03T07:45:06.776Z,11.90
2023-12-03T07:46:41.546Z,13.07
2023-12-03T07:48:15.159Z,12.30
2023-12-03T07:49:49.967Z,12.63
2023-12-03T07:51:23.651Z,10.98
2023-12-03T07:53:00.317Z,11.98
2023-12-03T07:54:33.957Z,12.85
2023-12-03T07:56:10.001Z,12.82
2023-12-03T07:57:43.461Z,11.55
2023-12-03T07:59:17.803Z,12.02
2023-12-03T08:00:51.236Z,11.38
2023-12-03T08:02:25.924Z,11.20
2023-12-03T08:03:59.466Z,12.52
2023-12-03T08:05:34.305Z,12.13
2023-12-03T08:07:08.618Z,12.45
2023-12-03T08:08:44.816Z,12.05
2023-12-03T08:10:18.042Z,13.18
2023-12-03T08:11:52.405Z,12.55
2023-12-03T08:13:28.714Z,12.90
2023-12-03T08:15:03.001Z,11.00
2023-12-03T08:16:36.332Z,12.30
2023-12-03T08:18:11.067Z,12.50
2023-12-03T08:19:44.781Z,13.38
2023-12-03T08:21:19.886Z,11.45
2023-12-03T08:22:53.323Z,13.65
2023-12-03T08:24:29.537Z,13.48
2023-12-03T08:26:07.912Z,12.45
2023-12-03T08:27:41.466Z,12.25
2023-12-03T08:29:16.330Z,12.10
2023-12-03T08:30:50.077Z,12.95
2023-12-03T08:32:24.622Z,12.30
2023-12-03T08:33:58.673Z,12.50
2023-12-03T08:35:34.041Z,12.27
2023-12-03T08:37:07.810Z,12.50
2023-12-03T08:38:44.697Z,12.38
2023-12-03T08:40:21.644Z,12.93
2023-12-03T08:41:55.510Z,12.15
2023-12-03T08:43:30.672Z,11.75
2023-12-03T08:45:05.505Z,13.25
2023-12-03T08:46:40.303Z,11.32
2023-12-03T08:48:13.821Z,11.45
2023-12-03T08:49:48.313Z,11.45
2023-12-03T08:51:22.044Z,12.52
2023-12-03T08:52:57.024Z,12.30
2023-12-03T08:54:32.286Z,13.38
2023-12-03T08:56:12.496Z,13.32
2023-12-03T08:57:47.348Z,13.55
2023-12-03T08:59:24.419Z,13.45
2023-12-03T09:00:59.159Z,13.77
2023-12-03T09:02:33.418Z,14.73
2023-12-03T09:04:08.553Z,12.73
2023-12-03T09:05:42.498Z,12.88
2023-12-03T09:07:17.781Z,12.50
2023-12-03T09:08:51.514Z,13.73
2023-12-03T09:10:26.315Z,12.25
2023-12-03T09:12:01.506Z,12.45
2023-12-03T09:13:36.966Z,13.10
2023-12-03T09:15:11.692Z,13.45
2023-12-03T09:16:46.690Z,12.93
2023-12-03T09:18:20.570Z,11.32
2023-12-03T09:19:55.482Z,14.02
2023-12-03T09:21:28.777Z,13.10
2023-12-03T09:23:03.824Z,13.32
2023-12-03T09:24:37.940Z,14.63
2023-12-03T09:26:12.624Z,11.80
2023-12-03T09:27:47.318Z,12.65
2023-12-03T09:29:22.610Z,13.27
2023-12-03T09:30:56.424Z,12.68
2023-12-03T09:32:30.963Z,12.45
2023-12-03T09:34:05.045Z,12.93
2023-12-03T09:35:40.273Z,14.50
2023-12-03T09:37:14.918Z,14.10
2023-12-03T09:38:49.918Z,14.23
2023-12-03T09:40:24.106Z,12.73
2023-12-03T09:42:03.611Z,15.68
2023-12-03T09:43:42.325Z,14.55
2023-12-03T09:45:20.955Z,14.00
2023-12-03T09:46:55.756Z,14.50
2023-12-03T09:48:35.862Z,13.90
2023-12-03T09:50:13.686Z,13.75
2023-12-03T09:51:49.246Z,14.48
2023-12-03T09:53:25.671Z,14.88
2023-12-03T09:55:00.445Z,14.25
2023-12-03T09:56:36.706Z,14.98
2023-12-03T09:58:12.052Z,14.70
2023-12-03T09:59:49.513Z,14.30
2023-12-03T10:01:25.220Z,16.02
2023-12-03T10:03:00.464Z,14.68
2023-12-03T10:04:34.412Z,15.38
2023-12-03T10:06:10.918Z,14.45
2023-12-03T10:07:49.573Z,15.48
2023-12-03T10:09:25.400Z,15.75
2023-12-03T10:11:01.406Z,15.57
2023-12-03T10:12:43.374Z,13.93
2023-12-03T10:14:20.484Z,16.10
2023-12-03T10:15:55.547Z,15.38
2023-12-03T10:17:30.994Z,15.13
2023-12-03T10:19:04.977Z,16.25
2023-12-03T10:20:42.377Z,14.98
2023-12-03T10:22:16.861Z,14.63
2023-12-03T10:24:02.563Z,15.10
2023-12-03T10:25:38.395Z,15.02
2023-12-03T10:27:13.161Z,16.45
2023-12-03T10:28:48.460Z,15.38
2023-12-03T10:30:22.568Z,14.40
2023-12-03T10:31:59.626Z,14.60
2023-12-03T10:33:33.423Z,14.50
2023-12-03T10:35:10.884Z,16.35
2023-12-03T10:36:45.652Z,15.02
2023-12-03T10:38:20.069Z,14.10
2023-12-03T10:39:54.955Z,16.00
2023-12-03T10:41:30.655Z,15.18
2023-12-03T10:43:04.725Z,15.82
2023-12-03T10:44:41.587Z,15.20
2023-12-03T10:46:16.603Z,14.68
2023-12-03T10:47:55.444Z,17.17
2023-12-03T10:49:33.277Z,17.13
2023-12-03T10:51:10.750Z,14.90
2023-12-03T10:52:44.707Z,16.13
2023-12-03T10:54:19.805Z,20.00
2023-12-03T10:55:55.087Z,16.80
2023-12-03T10:57:31.810Z,16.17
2023-12-03T10:59:11.778Z,15.43
2023-12-03T11:00:52.677Z,16.13
2023-12-03T11:02:30.892Z,15.02
2023-12-03T11:04:14.323Z,16.33
2023-12-03T11:05:52.449Z,16.58
2023-12-03T11:07:27.211Z,14.45
2023-12-03T11:09:00.959Z,17.25
2023-12-03T11:10:36.423Z,16.75
2023-12-03T11:12:10.025Z,14.90
2023-12-03T11:13:47.435Z,16.98
2023-12-03T11:15:22.908Z,17.45
2023-12-03T11:17:09.817Z,17.27
2023-12-03T11:18:55.997Z,16.08
2023-12-03T11:20:35.367Z,14.75
2023-12-03T11:22:21.935Z,16.55
2023-12-03T11:24:17.772Z,16.67
2023-12-03T11:25:57.552Z,15.77
2023-12-03T11:27:31.332Z,15.88
2023-12-03T11:29:06.831Z,16.00
2023-12-03T11:30:42.218Z,15.80
2023-12-03T11:32:17.249Z,16.02
2023-12-03T11:33:57.995Z,17.02
2023-12-03T11:35:34.593Z,15.65
2023-12-03T11:37:11.007Z,16.38
2023-12-03T11:38:46.065Z,17.10
2023-12-03T11:40:35.410Z,19.70
2023-12-03T11:42:13.662Z,17.83
2023-12-03T11:43:50.091Z,16.83
2023-12-03T11:45:27.300Z,16.38
2023-12-03T11:47:08.413Z,17.60
2023-12-03T11:48:44.197Z,17.67
2023-12-03T11:50:19.010Z,16.73
2023-12-03T11:51:55.291Z,17.70
2023-12-03T11:53:41.025Z,16.50
2023-12-03T11:55:20.969Z,16.33
2023-12-03T11:56:56.380Z,18.30
2023-12-03T11:58:31.142Z,17.50
2023-12-03T12:00:09.363Z,17.33
2023-12-03T12:01:43.807Z,18.20
2023-12-03T12:03:19.148Z,17.00
2023-12-03T12:04:53.086Z,16.95
2023-12-03T12:06:29.406Z,17.75
2023-12-03T12:08:07.211Z,16.50
2023-12-03T12:09:40.870Z,16.00
2023-12-03T12:11:15.389Z,17.67
2023-12-03T12:12:49.885Z,19.17
2023-12-03T12:14:24.948Z,17.85
2023-12-03T12:15:59.133Z,18.38
2023-12-03T12:17:34.462Z,18.10
2023-12-03T12:19:09.869Z,17.38
2023-12-03T12:20:44.401Z,17.15
2023-12-03T12:22:20.121Z,18.92
2023-12-03T12:23:56.228Z,17.45
2023-12-03T12:25:34.221Z,16.55
2023-12-03T12:27:08.273Z,18.08
2023-12-03T12:28:44.442Z,17.73
2023-12-03T12:30:30.944Z,16.80
2023-12-03T12:32:10.658Z,17.73
2023-12-03T12:33:44.830Z,17.80
2023-12-03T12:35:19.989Z,16.63
2023-12-03T12:37:04.340Z,17.25
2023-12-03T12:38:46.445Z,16.13
2023-12-03T12:40:21.384Z,17.98
2023-12-03T12:41:58.935Z,15.75
2023-12-03T12:43:35.294Z,15.52
2023-12-03T12:45:28.952Z,18.15
2023-12-03T12:47:05.118Z,16.90
2023-12-03T12:48:41.912Z,17.58
2023-12-03T12:50:18.695Z,17.23
2023-12-03T12:51:53.793Z,16.70
2023-12-03T12:53:28.884Z,17.10
2023-12-03T12:55:07.688Z,17.35
2023-12-03T12:56:47.690Z,15.95
2023-12-03T12:58:23.359Z,16.52
2023-12-03T12:59:58.344Z,16.35
2023-12-03T13:01:34.310Z,16.40
2023-12-03T13:03:09.365Z,17.10
2023-12-03T13:04:43.627Z,17.20
2023-12-03T13:06:18.874Z,17.10
2023-12-03T13:07:53.826Z,17.02
2023-12-03T13:09:28.873Z,16.35
2023-12-03T13:11:04.649Z,18.52
2023-12-03T13:12:41.969Z,20.20
2023-12-03T13:14:15.245Z,19.40
2023-12-03T13:15:50.666Z,16.25
2023-12-03T13:17:27.952Z,16.98
2023-12-03T13:19:01.645Z,17.40
2023-12-03T13:20:36.702Z,17.38
2023-12-03T13:22:10.652Z,16.02
2023-12-03T13:23:46.278Z,15.98
2023-12-03T13:25:21.596Z,18.35
2023-12-03T13:26:56.934Z,16.80
2023-12-03T13:28:31.851Z,16.60
2023-12-03T13:30:09.177Z,16.40
2023-12-03T13:31:43.253Z,16.98
2023-12-03T13:33:18.585Z,16.38
2023-12-03T13:34:53.216Z,16.67
2023-12-03T13:36:29.031Z,17.90
2023-12-03T13:38:04.091Z,18.02
2023-12-03T13:39:39.234Z,17.58
2023-12-03T13:41:13.109Z,17.13
2023-12-03T13:42:54.264Z,17.67
2023-12-03T13:44:29.286Z,18.08
2023-12-03T13:46:04.654Z,17.50
2023-12-03T13:47:39.105Z,18.80
2023-12-03T13:49:14.071Z,17.83
2023-12-03T13:50:48.667Z,19.10
2023-12-03T13:52:22.432Z,16.98
2023-12-03T13:53:57.269Z,18.58
2023-12-03T13:55:30.857Z,17.50
2023-12-03T13:57:05.786Z,16.90
2023-12-03T13:58:39.548Z,15.20
2023-12-03T14:00:17.736Z,17.13
2023-12-03T14:01:53.472Z,16.20
2023-12-03T14:03:27.467Z,17.33
2023-12-03T14:05:12.376Z,15.52
2023-12-03T14:06:57.402Z,16.75
2023-12-03T14:08:31.271Z,17.35
2023-12-03T14:10:07.931Z,16.90
2023-12-03T14:11:41.754Z,16.35
2023-12-03T14:13:17.161Z,17.15
2023-12-03T14:14:51.470Z,16.67
2023-12-03T14:16:27.510Z,16.38
2023-12-03T14:18:01.179Z,16.88
2023-12-03T14:19:36.504Z,16.05
2023-12-03T14:21:10.651Z,18.48
2023-12-03T14:22:45.303Z,16.00
2023-12-03T14:24:19.837Z,18.17
2023-12-03T14:25:55.284Z,17.35
2023-12-03T14:27:29.361Z,17.00
2023-12-03T14:29:04.863Z,17.23
2023-12-03T14:30:38.707Z,16.00
2023-12-03T14:32:15.286Z,16.73
2023-12-03T14:33:49.806Z,16.77
2023-12-03T14:35:24.596Z,17.05
2023-12-03T14:36:58.633Z,17.25
2023-12-03T14:38:34.481Z,18.23
2023-12-03T14:40:15.078Z,17.77
2023-12-03T14:41:49.069Z,17.67
2023-12-03T14:43:24.044Z,16.95
2023-12-03T14:44:58.720Z,17.48
2023-12-03T14:46:34.684Z,18.83
2023-12-03T14:48:09.670Z,18.40
2023-12-03T14:49:44.785Z,17.70
2023-12-03T14:51:19.790Z,17.75
2023-12-03T14:52:54.756Z,19.55
2023-12-03T14:54:28.424Z,17.90
2023-12-03T14:56:03.294Z,19.63
2023-12-03T14:57:38.545Z,17.73
2023-12-03T14:59:12.184Z,19.23
2023-12-03T15:00:47.025Z,18.63
2023-12-03T15:02:20.963Z,18.23
2023-12-03T15:03:58.101Z,17.85
2023-12-03T15:05:32.074Z,17.55
2023-12-03T15:07:07.221Z,21.42
2023-12-03T15:08:40.743Z,18.00
2023-12-03T15:10:18.019Z,18.23
2023-12-03T15:11:52.028Z,19.50
2023-12-03T15:13:27.091Z,24.90
2023-12-03T15:15:01.533Z,21.95
2023-12-03T15:16:36.925Z,18.90
2023-12-03T15:18:10.618Z,19.80
2023-12-03T15:19:46.687Z,17.92
2023-12-03T15:21:21.720Z,19.15
2023-12-03T15:22:57.033Z,18.40
2023-12-03T15:24:31.658Z,19.90
2023-12-03T15:26:07.097Z,18.20
2023-12-03T15:27:42.395Z,17.00
2023-12-03T15:29:16.696Z,18.85
2023-12-03T15:30:51.665Z,16.95
2023-12-03T15:32:26.570Z,19.42
2023-12-03T15:34:02.774Z,20.55
2023-12-03T15:35:38.941Z,19.10
2023-12-03T15:37:14.510Z,20.05
2023-12-03T15:38:49.343Z,19.70
2023-12-03T15:40:24.671Z,20.67
2023-12-03T15:41:58.822Z,18.23
2023-12-03T15:43:40.817Z,19.63
2023-12-03T15:45:19.854Z,18.60
2023-12-03T15:46:54.949Z,17.60
2023-12-03T15:48:31.581Z,19.58
2023-12-03T15:50:06.678Z,18.27
2023-12-03T15:51:43.411Z,18.60
2023-12-03T15:53:17.524Z,17.67
2023-12-03T15:54:53.122Z,20.17
2023-12-03T15:56:27.511Z,18.23
2023-12-03T15:58:02.931Z,18.77
2023-12-03T15:59:38.160Z,18.80
2023-12-03T16:01:13.391Z,19.90
2023-12-03T16:02:48.791Z,21.23
2023-12-03T16:04:23.341Z,20.83
2023-12-03T16:05:58.412Z,21.88
2023-12-03T16:07:34.001Z,23.00
2023-12-03T16:09:09.829Z,20.92
2023-12-03T16:10:43.953Z,21.20
2023-12-03T16:12:19.688Z,22.00
2023-12-03T16:13:54.480Z,24.15
2023-12-03T16:15:29.148Z,22.65
2023-12-03T16:17:06.073Z,24.70
2023-12-03T16:18:41.597Z,22.40
2023-12-03T16:20:16.268Z,23.65
2023-12-03T16:21:52.373Z,22.33
2023-12-03T16:23:27.933Z,22.60
2023-12-03T16:25:03.630Z,23.02
2023-12-03T16:26:38.029Z,21.20
2023-12-03T16:28:13.201Z,22.45
2023-12-03T16:29:47.270Z,21.27
2023-12-03T16:31:22.604Z,21.83
2023-12-03T16:32:57.142Z,22.33
2023-12-03T16:34:32.176Z,23.35
2023-12-03T16:36:08.032Z,22.77
2023-12-03T16:37:41.730Z,21.52
2023-12-03T16:39:17.971Z,21.70
2023-12-03T16:40:52.965Z,22.27
2023-12-03T16:42:29.260Z,21.95
2023-12-03T16:44:06.378Z,22.25
2023-12-03T16:45:41.122Z,21.25
2023-12-03T16:47:14.387Z,22.63
2023-12-03T16:48:51.029Z,22.02
2023-12-03T16:50:25.102Z,20.83
2023-12-03T16:52:00.050Z,21.48
2023-12-03T16:53:33.745Z,21.05
2023-12-03T16:55:11.061Z,18.30
2023-12-03T16:56:45.204Z,17.48
2023-12-03T16:58:20.675Z,17.00
2023-12-03T16:59:54.119Z,16.77
2023-12-03T17:01:28.534Z,17.42
2023-12-03T17:03:02.639Z,17.40
2023-12-03T17:04:39.586Z,18.70
2023-12-03T17:06:13.481Z,17.42
2023-12-03T17:07:48.154Z,17.52
2023-12-03T17:09:22.042Z,17.45
2023-12-03T17:10:59.033Z,17.77
2023-12-03T17:12:44.091Z,19.77
2023-12-03T17:14:22.776Z,18.10
2023-12-03T17:15:56.459Z,19.23
2023-12-03T17:17:31.231Z,18.23
2023-12-03T17:19:04.814Z,18.48
2023-12-03T17:20:39.937Z,17.05
2023-12-03T17:22:13.718Z,20.10
2023-12-03T17:23:48.653Z,21.58
2023-12-03T17:25:21.877Z,19.95
2023-12-03T17:26:59.421Z,19.85
2023-12-03T17:28:32.895Z,20.92
2023-12-03T17:30:09.692Z,19.45
2023-12-03T17:31:44.038Z,18.92
2023-12-03T17:33:20.276Z,20.50
2023-12-03T17:34:54.416Z,19.77
2023-12-03T17:36:29.395Z,18.27
2023-12-03T17:38:02.888Z,18.00
2023-12-03T17:39:39.505Z,18.23
2023-12-03T17:41:12.707Z,17.73
2023-12-03T17:42:48.710Z,19.17
2023-12-03T17:44:23.574Z,18.77
2023-12-03T17:45:58.051Z,18.33
2023-12-03T17:47:33.782Z,18.58
2023-12-03T17:49:08.055Z,18.23
2023-12-03T17:50:42.819Z,17.17
2023-12-03T17:52:16.536Z,16.30
2023-12-03T17:53:51.355Z,17.80
2023-12-03T17:55:24.737Z,17.42
2023-12-03T17:56:59.711Z,20.05
2023-12-03T17:58:34.441Z,18.88
2023-12-03T18:00:09.891Z,21.05
2023-12-03T18:01:43.669Z,20.48
2023-12-03T18:03:19.242Z,20.40
2023-12-03T18:04:52.539Z,21.25
2023-12-03T18:06:27.690Z,18.95
2023-12-03T18:08:01.977Z,20.67
2023-12-03T18:09:37.908Z,20.45
2023-12-03T18:11:11.719Z,19.73
2023-12-03T18:12:46.758Z,22.42
2023-12-03T18:14:24.303Z,22.55
2023-12-03T18:15:58.118Z,22.30
2023-12-03T18:17:32.680Z,23.15
2023-12-03T18:19:07.738Z,21.98
2023-12-03T18:20:43.110Z,21.40
2023-12-03T18:22:17.398Z,19.83
2023-12-03T18:23:51.272Z,18.48
2023-12-03T18:25:25.528Z,18.70
2023-12-03T18:26:59.401Z,19.40
2023-12-03T18:28:34.273Z,18.73
2023-12-03T18:30:10.493Z,19.13
2023-12-03T18:31:46.713Z,18.95
2023-12-03T18:33:21.237Z,18.92
2023-12-03T18:34:55.649Z,17.92
2023-12-03T18:36:29.174Z,19.02
2023-12-03T18:38:03.985Z,18.83
2023-12-03T18:39:38.508Z,19.63
2023-12-03T18:41:13.190Z,17.15
2023-12-03T18:42:46.487Z,19.70
2023-12-03T18:44:22.195Z,20.40
2023-12-03T18:45:59.647Z,19.92
2023-12-03T18:47:34.403Z,17.23
2023-12-03T18:49:09.140Z,16.50
2023-12-03T18:50:42.283Z,20.25
2023-12-03T18:52:17.246Z,17.55
2023-12-03T18:53:50.389Z,20.13
2023-12-03T18:55:24.607Z,19.25
2023-12-03T18:56:58.302Z,18.15
2023-12-03T18:58:33.169Z,16.83
2023-12-03T19:00:07.732Z,16.02
2023-12-03T19:01:43.894Z,19.10
2023-12-03T19:03:17.974Z,17.92
2023-12-03T19:04:53.233Z,18.98
2023-12-03T19:06:26.775Z,17.80
2023-12-03T19:08:01.652Z,17.13
2023-12-03T19:09:36.634Z,16.80
2023-12-03T19:11:11.945Z,16.48
2023-12-03T19:12:45.232Z,18.00
2023-12-03T19:14:25.463Z,14.65
2023-12-03T19:15:59.106Z,15.88
2023-12-03T19:17:35.909Z,16.08
2023-12-03T19:19:10.481Z,16.15
2023-12-03T19:20:44.055Z,15.82
2023-12-03T19:22:19.227Z,16.98
2023-12-03T19:23:55.434Z,15.55
2023-12-03T19:25:29.022Z,15.90
2023-12-03T19:27:03.476Z,14.45
2023-12-03T19:28:37.206Z,14.60
2023-12-03T19:30:14.049Z,15.93
2023-12-03T19:31:49.837Z,13.60
2023-12-03T19:33:26.081Z,13.80
2023-12-03T19:35:01.088Z,14.35
2023-12-03T19:36:36.655Z,15.63
2023-12-03T19:38:13.227Z,15.57
2023-12-03T19:39:46.725Z,13.25
2023-12-03T19:41:21.271Z,14.88
2023-12-03T19:42:54.933Z,15.50
2023-12-03T19:44:29.975Z,13.07
2023-12-03T19:46:03.165Z,15.52
2023-12-03T19:47:38.694Z,14.15
2023-12-03T19:49:14.051Z,13.90
2023-12-03T19:50:48.529Z,15.70
2023-12-03T19:52:22.233Z,14.88
2023-12-03T19:53:56.812Z,16.15
2023-12-03T19:55:30.807Z,14.57
2023-12-03T19:57:06.417Z,14.55
2023-12-03T19:58:39.693Z,15.27
2023-12-03T20:00:15.819Z,16.48
2023-12-03T20:01:49.402Z,14.68
2023-12-03T20:03:24.076Z,13.77
2023-12-03T20:07:48.680Z,14.65
2023-12-03T20:12:16.563Z,13.68
2023-12-03T20:13:51.249Z,15.55
2023-12-03T20:15:28.755Z,15.07
2023-12-03T20:17:12.708Z,15.57
2023-12-03T20:18:45.909Z,16.35
2023-12-03T20:20:21.041Z,15.27
2023-12-03T20:21:55.111Z,17.10
2023-12-03T20:23:29.797Z,16.88
2023-12-03T20:25:06.583Z,16.15
2023-12-03T20:26:40.887Z,14.30
2023-12-03T20:28:16.542Z,14.70
2023-12-03T20:29:49.825Z,16.85
2023-12-03T20:31:26.472Z,15.38
2023-12-03T20:33:01.330Z,16.20
2023-12-03T20:34:35.757Z,15.07
2023-12-03T20:36:11.253Z,15.80
2023-12-03T20:37:45.716Z,16.80
2023-12-03T20:39:20.823Z,16.92
2023-12-03T20:40:55.565Z,15.13